Página principal
METAR-TAF:

METAR-TAF

Aeroportos :

Aeroporto Internacional de Faa'a

Taiti, Polinésia Francesa

latitude: 17-33S, longitude: 149-37W, altura: 2 m

Observação actual do tempo

O boletim foi feito há 27 minutos, às 00:00 UTC
Vento 5 kt de oes-sudoeste
Temperatura 28°C
Humidade 62%
Pressão 1014 hPa
Visibilidade 10 km ou mais
Poucas nuvensa uma altura de 2600 ft
Nuvens fragmentadasa uma altura de 6300 ft

METAR: NTAA 260000Z 24005KT 9999 FEW026 BKN063 28/20 Q1014 NOSIG

Hora: 14:27 (00:27 UTC)

Previsão

O boletim foi feito há 1 hora e 27 minutos, às 23:00 UTC
Previsão válida de 26 às 00 UTC a 27 às 06 UTC
Vento 5 kt com direcção variável
Visibilidade 10 km ou mais
Poucas nuvensa uma altura de 2500 ft

TAF: NTAA 252300Z 2600/2706 VRB05KT 9999 FEW025

Observações e previsões do tempo de mais de 4000 aeroportos (mensagens METAR e TAF).

As estações disponíveis são os pontos amarelos e vermelhos sobre o mapa.

Mova o rato sobre o mapa para ver o nome da estação.

Depois clique no ponto para visualizar as observações e previsões meteorológicas.

Para alterar o mapa : clique nos botões verdes com uma cruz preta para aumentar o zoom; no botão verde com uma pitada de zoom; ou nas setas verdes para mapas adjacentes.


METAR-TAF: